KASL/ASL METAR and TAF weather

Enter ICAO airport designator
Station Type Date Time Source
KASL METAR 2018/04/23 11:15 UTC NOAA

KASL 231115Z AUTO 00000KT 10SM CLR 10/09 A3000 RMK AO1 T01000085


Station Type Date Time Source
KASL Decoded METAR 2018/04/23 11:15 UTC NOAA

Station name not available
Apr 23, 2018 - 07:15 AM EDT / 2018.04.23 1115 UTC
Wind: Calm:0
Visibility: 10 mile(s):0
Sky conditions: clear
Temperature: 50.0 F (10.0 C)
Dew Point: 47.3 F (8.5 C)
Relative Humidity: 90%
Pressure (altimeter): 30 in. Hg (1015 hPa)
ob: KASL 231115Z AUTO 00000KT 10SM CLR 10/09 A3000 RMK AO1 T01000085
cycle: 11

Station Type Date Time Source
KASL TAF UTC NOAA

Error!


Example: see airport list